Ucluelet, Canada
Current Conditions -  °F | °C
As of 2:00 PM on Thursday 23 Oct 2014 (Local Time) from CYAZ Reporting Station
Broken Clouds Broken Clouds  
Wind Chill: 52°   Ceiling: 5000
Heat Index: 52°   Visibility: 15mi
Dew Point: 50°   Wind: 5mph
Humidity: 94%   Direction: 50°NE
Pressure: 29.76"   Gusts: NA
Location:  48.94°N, 125.54°W
Report Text: CYAZ 232100Z 05004KT 15SM FEW007 SCT018TCU BKN050 BKN220 11/10 A2976 RMK CF1TCU2SC2CI1 WND ESTD SLP077
Loading
Personal Weather Stations






























Interactive Weather Map New forecast layout! Learn more

10-Day Weather Forecast

Advertisements
Track Severe Weather on mobile